Abis Bremen — PCJO — position and weather

sailwx.info

Track history (hours):
 
Tides and Currents Weather Stations Pressure Air Temp Water Temp Dewpoint Dewpoint Depression Visibility Wind Speed Wind Dir Waves Ship Positions

Abis Bremen

Last reported at 2020-Jan-11 06:07 UTC. Time now 2020-Jan-22 00:05 UTC.
Position N 41°06' W 008°51'.
Warning: this ship's position is 10 days out of date.

Length 90 m; draft 5.2 m.

Type: Ship. MMSI: 246778880.

Date/timePositionNaut miles runAvg speedWind from/ knotsBaromVisibWave heightAir tempDewpointWater temp
2020-Jan-11 06:07N 41°06' W 008°51'  
2020-Jan-08 19:29N 41°15' W 008°47'5 9.6
2020-Jan-08 19:00N 41°11' W 008°45'3 2.5
2020-Jan-08 17:59N 41°11' W 008°41'0 0.0
2020-Jan-08 17:29N 41°11' W 008°41'0 0.0
2020-Jan-08 15:29N 41°11' W 008°41'0 0.0
2020-Jan-08 14:59N 41°11' W 008°41'0 0.0
2020-Jan-08 14:00N 41°11' W 008°41'4 4.4
2020-Jan-08 13:00N 41°09' W 008°46'0 0.0
2020-Jan-08 11:28N 41°09' W 008°46'0 0.0
2020-Jan-08 10:58N 41°09' W 008°46'0 0.0
2020-Jan-08 09:25N 41°09' W 008°46'0 0.0
2020-Jan-08 08:58N 41°09' W 008°46'0 0.0
2020-Jan-08 08:28N 41°09' W 008°46'0 0.0
2020-Jan-08 07:55N 41°09' W 008°46'0 0.0
2020-Jan-08 07:28N 41°09' W 008°46'2 2.3
2020-Jan-08 06:30N 41°10' W 008°48'3 3.3
2020-Jan-08 05:29N 41°14' W 008°49'2 2.7
2020-Jan-08 04:56N 41°15' W 008°49'  
2020-Jan-03 12:03N 28°39' W 014°44'010.9
2020-Jan-03 12:00N 28°39' W 014°44'1610.8
2020-Jan-03 10:30N 28°24' W 014°49'1610.7
2020-Jan-03 09:00N 28°08' W 014°56'1610.9
2020-Jan-03 07:30N 27°53' W 015°02'4 8.6
2020-Jan-03 07:00N 27°50' W 015°05'14 9.4
2020-Jan-03 05:30N 27°50' W 015°21'  
Track history (hours):
 
Tides and Currents Weather Stations Pressure Air Temp Water Temp Dewpoint Dewpoint Depression Visibility Wind Speed Wind Dir Waves Ship Positions

Abis Bremen

Last reported at 2020-Jan-11 06:07 UTC. Time now 2020-Jan-22 00:05 UTC.
Position N 41°06' W 008°51'.
Warning: this ship's position is 10 days out of date.

Length 90 m; draft 5.2 m.

Type: Ship. MMSI: 246778880.

Date/timePositionNaut miles runAvg speedWind from/ knotsBaromVisibWave heightAir tempDewpointWater temp
2020-Jan-11 06:07N 41°06' W 008°51'  
2020-Jan-08 19:29N 41°15' W 008°47'5 9.6
2020-Jan-08 19:00N 41°11' W 008°45'3 2.5
2020-Jan-08 17:59N 41°11' W 008°41'0 0.0
2020-Jan-08 17:29N 41°11' W 008°41'0 0.0
2020-Jan-08 15:29N 41°11' W 008°41'0 0.0
2020-Jan-08 14:59N 41°11' W 008°41'0 0.0
2020-Jan-08 14:00N 41°11' W 008°41'4 4.4
2020-Jan-08 13:00N 41°09' W 008°46'0 0.0
2020-Jan-08 11:28N 41°09' W 008°46'0 0.0
2020-Jan-08 10:58N 41°09' W 008°46'0 0.0
2020-Jan-08 09:25N 41°09' W 008°46'0 0.0
2020-Jan-08 08:58N 41°09' W 008°46'0 0.0
2020-Jan-08 08:28N 41°09' W 008°46'0 0.0
2020-Jan-08 07:55N 41°09' W 008°46'0 0.0
2020-Jan-08 07:28N 41°09' W 008°46'2 2.3
2020-Jan-08 06:30N 41°10' W 008°48'3 3.3
2020-Jan-08 05:29N 41°14' W 008°49'2 2.7
2020-Jan-08 04:56N 41°15' W 008°49'  
2020-Jan-03 12:03N 28°39' W 014°44'010.9
2020-Jan-03 12:00N 28°39' W 014°44'1610.8
2020-Jan-03 10:30N 28°24' W 014°49'1610.7
2020-Jan-03 09:00N 28°08' W 014°56'1610.9
2020-Jan-03 07:30N 27°53' W 015°02'4 8.6
2020-Jan-03 07:00N 27°50' W 015°05'14 9.4
2020-Jan-03 05:30N 27°50' W 015°21'  

Dump ship's entire track history